KRCA/RCA METAR and TAF weather

Enter ICAO airport designator
Station Type Date Time Source
KRCA METAR 2019/08/21 21:56 UTC NOAA

KRCA 212156Z AUTO 18009G18KT 10SM CLR 24/19 A3009 RMK AO2 SLP173 T02380186 $


Station Type Date Time Source
KRCA Decoded METAR 2019/08/21 21:56 UTC NOAA

Station name not available
Aug 21, 2019 - 05:56 PM EDT / 2019.08.21 2156 UTC
Wind: from the S (180 degrees) at 10 MPH (9 KT) gusting to 21 MPH (18 KT):0
Visibility: 10 mile(s):0
Sky conditions: clear
Temperature: 74.8 F (23.8 C)
Dew Point: 65.5 F (18.6 C)
Relative Humidity: 72%
Pressure (altimeter): 30.09 in. Hg (1018 hPa)
ob: KRCA 212156Z AUTO 18009G18KT 10SM CLR 24/19 A3009 RMK AO2 SLP173 T02380186
cycle: 22

Station Type Date Time Source
KRCA TAF 2019/08/21 19:06 UTC NOAA

TAF KRCA 211900Z 2119/2301 13012KT 9999 SCT040 QNH3007INS
BECMG 2202/2203 VRB06KT 9999 SCT040 QNH2994INS
BECMG 2214/2215 17012G18KT 9999 BKN030 510001 QNH2993INS
BECMG 2217/2218 17015G25KT 9999 BKN030 520001 QNH2985INS TX26/2121Z TN15/2211Z

Example: see airport list